createdAt,value
2022-11-29T00:00:49.656Z,101618.67
2022-11-29T00:03:16.454Z,101624.40
2022-11-29T00:05:43.188Z,101617.63
2022-11-29T00:08:09.854Z,101619.23
2022-11-29T00:10:37.580Z,101617.14
2022-11-29T00:13:04.516Z,101613.45
2022-11-29T00:15:31.259Z,101614.23
2022-11-29T00:17:57.920Z,101611.09
2022-11-29T00:20:24.626Z,101611.38
2022-11-29T00:22:51.228Z,101605.98
2022-11-29T00:25:17.989Z,101600.77
2022-11-29T00:27:44.691Z,101602.84
2022-11-29T00:30:12.129Z,101603.21
2022-11-29T00:32:38.754Z,101610.80
2022-11-29T00:35:09.683Z,101614.88
2022-11-29T00:37:36.667Z,101609.98
2022-11-29T00:40:04.211Z,101606.74
2022-11-29T00:42:30.964Z,101606.21
2022-11-29T00:44:57.584Z,101609.92
2022-11-29T00:47:24.238Z,101613.85
2022-11-29T00:49:50.895Z,101616.48
2022-11-29T00:52:17.585Z,101616.30
2022-11-29T00:54:44.608Z,101618.11
2022-11-29T00:57:11.403Z,101615.36
2022-11-29T00:59:38.028Z,101610.21
2022-11-29T01:02:04.695Z,101606.50
2022-11-29T01:04:31.426Z,101610.48
2022-11-29T01:06:58.037Z,101611.11
2022-11-29T01:09:24.708Z,101608.22
2022-11-29T01:11:51.359Z,101607.80
2022-11-29T01:14:18.067Z,101606.52
2022-11-29T01:16:44.746Z,101601.83
2022-11-29T01:19:11.667Z,101601.51
2022-11-29T01:21:38.269Z,101602.54
2022-11-29T01:24:05.202Z,101605.43
2022-11-29T01:26:31.884Z,101610.58
2022-11-29T01:28:59.112Z,101610.86
2022-11-29T01:31:31.138Z,101606.19
2022-11-29T01:33:59.635Z,101608.48
2022-11-29T01:36:26.769Z,101607.15
2022-11-29T01:38:53.445Z,101601.04
2022-11-29T01:41:31.060Z,101603.09
2022-11-29T01:44:04.708Z,101603.23
2022-11-29T01:46:35.544Z,101603.44
2022-11-29T01:49:24.547Z,101603.13
2022-11-29T01:51:53.410Z,101602.25
2022-11-29T01:54:20.127Z,101598.05
2022-11-29T01:56:47.411Z,101589.84
2022-11-29T01:59:16.055Z,101581.24
2022-11-29T02:01:42.730Z,101584.18
2022-11-29T02:04:09.414Z,101582.80
2022-11-29T02:06:36.190Z,101585.05
2022-11-29T02:09:03.143Z,101585.40
2022-11-29T02:11:42.312Z,101590.60
2022-11-29T02:14:21.107Z,101597.98
2022-11-29T02:16:56.694Z,101602.86
2022-11-29T02:19:51.371Z,101597.25
2022-11-29T02:22:29.207Z,101595.55
2022-11-29T02:25:14.796Z,101592.59
2022-11-29T02:28:02.592Z,101595.02
2022-11-29T02:30:38.788Z,101603.91
2022-11-29T02:33:23.397Z,101605.23
2022-11-29T02:35:56.258Z,101607.60
2022-11-29T02:38:35.229Z,101606.30
2022-11-29T02:41:30.084Z,101611.30
2022-11-29T02:44:12.420Z,101612.61
2022-11-29T02:46:56.748Z,101610.99
2022-11-29T02:49:32.654Z,101607.98
2022-11-29T02:52:00.685Z,101613.81
2022-11-29T02:54:38.542Z,101606.23
2022-11-29T02:57:20.642Z,101605.51
2022-11-29T02:59:59.502Z,101607.56
2022-11-29T03:02:41.023Z,101605.83
2022-11-29T03:05:32.752Z,101605.89
2022-11-29T03:07:59.453Z,101600.42
2022-11-29T03:10:54.023Z,101602.98
2022-11-29T03:13:27.700Z,101604.42
2022-11-29T03:16:09.894Z,101604.25
2022-11-29T03:19:31.164Z,101609.27
2022-11-29T03:22:34.399Z,101623.27
2022-11-29T06:55:03.087Z,101755.38
2022-11-29T06:57:48.815Z,101751.16
2022-11-29T07:00:27.125Z,101753.46
2022-11-29T07:03:13.030Z,101750.51
2022-11-29T07:05:40.827Z,101749.45
2022-11-29T07:08:16.234Z,101750.20
2022-11-29T07:10:43.397Z,101753.73
2022-11-29T07:13:12.628Z,101760.44
2022-11-29T07:15:50.302Z,101763.62
2022-11-29T07:18:44.634Z,101761.75
2022-11-29T07:21:17.707Z,101753.23
2022-11-29T07:24:05.609Z,101748.91
2022-11-29T07:26:46.771Z,101750.09
2022-11-29T07:29:20.626Z,101754.96
2022-11-29T07:31:53.249Z,101758.69
2022-11-29T07:34:29.279Z,101760.66
2022-11-29T07:37:03.815Z,101757.74
2022-11-29T07:40:09.115Z,101755.31
2022-11-29T07:42:46.444Z,101756.02
2022-11-29T07:45:29.115Z,101755.50
2022-11-29T07:47:55.842Z,101755.77
2022-11-29T07:50:22.548Z,101756.20
2022-11-29T07:52:49.177Z,101760.41
2022-11-29T07:55:21.024Z,101756.60
2022-11-29T07:57:48.869Z,101756.70
2022-11-29T08:00:16.139Z,101758.05
2022-11-29T08:02:42.844Z,101754.58
2022-11-29T08:05:10.016Z,101754.13
2022-11-29T08:07:37.479Z,101760.99
2022-11-29T08:10:05.281Z,101760.83
2022-11-29T08:12:31.989Z,101763.38
2022-11-29T08:14:58.696Z,101759.55
2022-11-29T08:17:26.002Z,101758.39
2022-11-29T08:19:52.912Z,101751.11
2022-11-29T08:22:19.554Z,101749.11
2022-11-29T08:24:46.474Z,101747.15
2022-11-29T08:27:13.366Z,101744.22
2022-11-29T08:29:40.168Z,101751.35
2022-11-29T08:32:06.983Z,101746.67
2022-11-29T08:34:33.686Z,101739.71
2022-11-29T08:37:00.322Z,101745.98
2022-11-29T08:39:26.991Z,101745.95
2022-11-29T08:41:53.652Z,101739.44
2022-11-29T08:44:20.298Z,101734.49
2022-11-29T08:47:05.772Z,101735.79
2022-11-29T08:49:32.468Z,101730.61
2022-11-29T08:52:17.817Z,101724.27
2022-11-29T08:54:44.817Z,101728.00
2022-11-29T08:57:41.497Z,101728.48
2022-11-29T08:59:58.401Z,101728.68
2022-11-29T09:02:25.078Z,101728.87
2022-11-29T09:04:51.783Z,101732.55
2022-11-29T09:07:18.464Z,101729.67
2022-11-29T09:09:45.148Z,101728.10
2022-11-29T09:12:11.804Z,101730.20
2022-11-29T09:14:38.466Z,101725.33
2022-11-29T09:17:05.130Z,101721.64
2022-11-29T09:19:31.905Z,101723.54
2022-11-29T09:21:58.552Z,101717.67
2022-11-29T09:24:25.362Z,101719.02
2022-11-29T09:26:51.993Z,101718.48
2022-11-29T09:29:18.796Z,101716.02
2022-11-29T09:31:47.894Z,101709.67
2022-11-29T09:34:15.724Z,101704.65
2022-11-29T09:41:19.810Z,101690.30
2022-11-29T09:44:08.057Z,101690.05
2022-11-29T09:46:40.994Z,101697.27
2022-11-29T09:49:30.676Z,101694.48
2022-11-29T09:52:12.685Z,101702.63
2022-11-29T09:55:00.710Z,101698.63
2022-11-29T09:57:28.715Z,101699.69
2022-11-29T09:59:58.144Z,101700.22
2022-11-29T10:02:45.351Z,101701.41
2022-11-29T10:05:13.770Z,101701.89
2022-11-29T10:07:46.447Z,101703.93
2022-11-29T10:10:43.204Z,101702.87
2022-11-29T10:13:20.431Z,101703.16
2022-11-29T10:15:48.583Z,101695.99
2022-11-29T10:18:28.923Z,101688.63
2022-11-29T10:20:58.514Z,101685.95
2022-11-29T10:23:30.883Z,101690.59
2022-11-29T10:25:57.688Z,101701.14
2022-11-29T10:28:31.123Z,101700.33
2022-11-29T10:31:19.629Z,101699.27
2022-11-29T10:33:46.270Z,101697.44
2022-11-29T10:36:19.136Z,101690.96
2022-11-29T10:38:45.802Z,101695.16
2022-11-29T10:41:15.503Z,101695.33
2022-11-29T10:43:43.097Z,101696.22
2022-11-29T10:46:14.150Z,101702.01
2022-11-29T10:48:40.775Z,101702.29
2022-11-29T15:05:14.724Z,101699.98
2022-11-29T15:07:44.834Z,101703.05
2022-11-29T15:10:16.637Z,101707.81
2022-11-29T15:12:43.335Z,101706.94
2022-11-29T15:15:21.499Z,101707.16
2022-11-29T15:18:02.230Z,101708.38
2022-11-29T15:20:38.416Z,101705.11
2022-11-29T15:23:07.732Z,101706.52
2022-11-29T15:25:34.410Z,101705.20
2022-11-29T15:28:05.849Z,101709.87
2022-11-29T15:30:36.593Z,101708.22
2022-11-29T15:33:04.701Z,101708.60
2022-11-29T15:35:32.204Z,101703.94
2022-11-29T15:37:58.907Z,101703.21
2022-11-29T15:40:31.523Z,101705.95
2022-11-29T15:43:13.224Z,101710.59
2022-11-29T15:45:40.177Z,101707.23
2022-11-29T15:48:33.172Z,101708.56
2022-11-29T15:51:15.213Z,101710.45
2022-11-29T15:54:12.264Z,101715.55
2022-11-29T15:56:45.605Z,101714.38
2022-11-29T15:59:36.151Z,101714.08
2022-11-29T16:02:08.344Z,101713.77
2022-11-29T16:04:39.909Z,101713.89
2022-11-29T16:07:08.790Z,101712.51
2022-11-29T16:09:38.924Z,101710.24
2022-11-29T16:12:09.428Z,101710.67
2022-11-29T16:14:36.207Z,101705.66
2022-11-29T16:17:03.911Z,101703.74
2022-11-29T16:19:31.753Z,101701.41
2022-11-29T16:22:02.867Z,101702.55
2022-11-29T16:24:29.570Z,101704.77
2022-11-29T16:26:56.198Z,101704.39
2022-11-29T16:29:30.941Z,101699.42
2022-11-29T16:31:57.743Z,101705.52
2022-11-29T16:34:33.908Z,101706.88
2022-11-29T16:37:02.399Z,101707.38
2022-11-29T16:39:29.169Z,101708.38
2022-11-29T16:42:08.404Z,101708.16
2022-11-29T16:44:41.401Z,101709.38
2022-11-29T16:47:18.091Z,101708.99
2022-11-29T16:49:44.743Z,101710.55
2022-11-29T16:52:23.862Z,101712.13
2022-11-29T16:54:50.976Z,101708.52
2022-11-29T16:57:18.736Z,101711.84
2022-11-29T16:59:46.576Z,101709.92
2022-11-29T17:02:13.988Z,101710.43
2022-11-29T17:04:40.879Z,101710.27
2022-11-29T17:07:09.358Z,101713.09
2022-11-29T17:09:36.264Z,101715.38
2022-11-29T17:12:02.977Z,101717.80
2022-11-29T17:14:29.906Z,101719.41
2022-11-29T17:16:56.696Z,101718.55
2022-11-29T17:19:23.945Z,101716.60
2022-11-29T17:21:51.559Z,101712.93
2022-11-29T17:24:19.386Z,101716.92
2022-11-29T17:26:46.159Z,101716.00
2022-11-29T17:29:13.834Z,101718.09
2022-11-29T17:31:41.432Z,101718.83
2022-11-29T17:34:08.226Z,101719.90
2022-11-29T17:36:34.841Z,101721.84
2022-11-29T17:39:02.212Z,101722.10
2022-11-29T17:41:31.087Z,101728.48
2022-11-29T17:43:57.979Z,101723.36
2022-11-29T17:46:28.929Z,101727.62
2022-11-29T17:48:55.897Z,101726.42
2022-11-29T17:51:50.730Z,101727.14
2022-11-29T17:54:10.582Z,101724.48
2022-11-29T17:56:37.214Z,101725.66
2022-11-29T17:59:04.084Z,101725.05
2022-11-29T18:01:32.554Z,101724.98
2022-11-29T18:04:00.421Z,101727.50
2022-11-29T18:06:34.392Z,101724.95
2022-11-29T18:09:01.576Z,101725.00
2022-11-29T18:11:29.896Z,101728.71
2022-11-29T18:13:56.915Z,101729.97
2022-11-29T18:16:28.746Z,101730.14
2022-11-29T18:18:56.331Z,101729.10
2022-11-29T18:21:23.201Z,101726.98
2022-11-29T18:23:50.027Z,101726.45
2022-11-29T18:26:18.818Z,101728.02
2022-11-29T18:28:45.634Z,101727.17
2022-11-29T18:31:16.180Z,101726.95
2022-11-29T18:33:43.736Z,101727.94
2022-11-29T18:36:21.308Z,101728.11
2022-11-29T18:38:48.245Z,101724.45
2022-11-29T18:41:19.492Z,101726.23
